sensor_id;sensor_type;location;lat;lon;timestamp;P1;durP1;ratioP1;P2;durP2;ratioP2
74674;SDS011;63200;48.810;12.352;2022-11-20T00:01:17;33.90;;;15.75;;
74674;SDS011;63200;48.810;12.352;2022-11-20T00:03:46;38.17;;;17.33;;
74674;SDS011;63200;48.810;12.352;2022-11-20T00:06:14;39.40;;;16.73;;
74674;SDS011;63200;48.810;12.352;2022-11-20T00:08:41;38.25;;;16.77;;
74674;SDS011;63200;48.810;12.352;2022-11-20T00:11:07;36.90;;;16.38;;
74674;SDS011;63200;48.810;12.352;2022-11-20T00:13:37;35.50;;;16.27;;
74674;SDS011;63200;48.810;12.352;2022-11-20T00:16:03;38.38;;;15.95;;
74674;SDS011;63200;48.810;12.352;2022-11-20T00:18:30;39.15;;;16.08;;
74674;SDS011;63200;48.810;12.352;2022-11-20T00:21:00;37.67;;;16.52;;
74674;SDS011;63200;48.810;12.352;2022-11-20T00:23:26;34.45;;;14.65;;
74674;SDS011;63200;48.810;12.352;2022-11-20T00:25:52;40.83;;;17.38;;
74674;SDS011;63200;48.810;12.352;2022-11-20T00:28:17;40.03;;;17.08;;
74674;SDS011;63200;48.810;12.352;2022-11-20T00:30:42;39.42;;;17.02;;
74674;SDS011;63200;48.810;12.352;2022-11-20T00:33:08;34.05;;;16.00;;
74674;SDS011;63200;48.810;12.352;2022-11-20T00:35:33;38.83;;;16.67;;
74674;SDS011;63200;48.810;12.352;2022-11-20T00:37:58;37.08;;;16.30;;
74674;SDS011;63200;48.810;12.352;2022-11-20T00:40:24;35.78;;;15.77;;
74674;SDS011;63200;48.810;12.352;2022-11-20T00:42:49;38.58;;;16.23;;
74674;SDS011;63200;48.810;12.352;2022-11-20T00:45:14;36.65;;;16.58;;
74674;SDS011;63200;48.810;12.352;2022-11-20T00:47:40;39.05;;;17.10;;
74674;SDS011;63200;48.810;12.352;2022-11-20T00:50:05;37.22;;;17.20;;
74674;SDS011;63200;48.810;12.352;2022-11-20T00:52:31;42.08;;;18.65;;
74674;SDS011;63200;48.810;12.352;2022-11-20T00:54:56;40.78;;;18.63;;
74674;SDS011;63200;48.810;12.352;2022-11-20T00:57:21;47.75;;;19.58;;
74674;SDS011;63200;48.810;12.352;2022-11-20T00:59:46;45.85;;;19.42;;
74674;SDS011;63200;48.810;12.352;2022-11-20T01:02:12;45.10;;;18.50;;
74674;SDS011;63200;48.810;12.352;2022-11-20T01:04:37;41.15;;;17.92;;
74674;SDS011;63200;48.810;12.352;2022-11-20T01:07:02;42.08;;;17.10;;
74674;SDS011;63200;48.810;12.352;2022-11-20T01:09:28;36.80;;;16.42;;
74674;SDS011;63200;48.810;12.352;2022-11-20T01:11:53;32.42;;;16.52;;
74674;SDS011;63200;48.810;12.352;2022-11-20T01:14:19;35.72;;;16.38;;
74674;SDS011;63200;48.810;12.352;2022-11-20T01:16:46;35.75;;;15.45;;
74674;SDS011;63200;48.810;12.352;2022-11-20T01:19:14;34.58;;;14.75;;
74674;SDS011;63200;48.810;12.352;2022-11-20T01:21:42;35.78;;;14.80;;
74674;SDS011;63200;48.810;12.352;2022-11-20T01:24:10;35.88;;;14.57;;
74674;SDS011;63200;48.810;12.352;2022-11-20T01:26:39;33.33;;;14.65;;
74674;SDS011;63200;48.810;12.352;2022-11-20T01:29:06;33.22;;;14.75;;
74674;SDS011;63200;48.810;12.352;2022-11-20T01:31:35;29.90;;;13.27;;
74674;SDS011;63200;48.810;12.352;2022-11-20T01:34:05;31.40;;;14.23;;
74674;SDS011;63200;48.810;12.352;2022-11-20T01:36:33;33.85;;;15.32;;
74674;SDS011;63200;48.810;12.352;2022-11-20T01:39:02;31.05;;;14.13;;
74674;SDS011;63200;48.810;12.352;2022-11-20T01:41:31;25.08;;;12.82;;
74674;SDS011;63200;48.810;12.352;2022-11-20T01:44:16;28.85;;;13.27;;
74674;SDS011;63200;48.810;12.352;2022-11-20T01:47:00;30.00;;;13.40;;
74674;SDS011;63200;48.810;12.352;2022-11-20T01:49:40;30.88;;;14.07;;
74674;SDS011;63200;48.810;12.352;2022-11-20T01:52:22;29.88;;;12.80;;
74674;SDS011;63200;48.810;12.352;2022-11-20T01:54:54;24.55;;;12.30;;
74674;SDS011;63200;48.810;12.352;2022-11-20T01:57:24;29.65;;;13.50;;
74674;SDS011;63200;48.810;12.352;2022-11-20T02:00:15;26.30;;;12.60;;
74674;SDS011;63200;48.810;12.352;2022-11-20T02:02:41;29.55;;;14.00;;
74674;SDS011;63200;48.810;12.352;2022-11-20T02:07:57;27.58;;;13.23;;
74674;SDS011;63200;48.810;12.352;2022-11-20T02:10:24;31.48;;;14.25;;
74674;SDS011;63200;48.810;12.352;2022-11-20T02:12:52;32.47;;;14.10;;
74674;SDS011;63200;48.810;12.352;2022-11-20T02:15:37;28.83;;;13.40;;
74674;SDS011;63200;48.810;12.352;2022-11-20T02:18:03;28.15;;;13.23;;
74674;SDS011;63200;48.810;12.352;2022-11-20T02:20:30;33.42;;;14.23;;
74674;SDS011;63200;48.810;12.352;2022-11-20T02:23:06;35.25;;;15.18;;
74674;SDS011;63200;48.810;12.352;2022-11-20T02:25:36;30.38;;;14.20;;
74674;SDS011;63200;48.810;12.352;2022-11-20T02:28:04;31.67;;;14.13;;
74674;SDS011;63200;48.810;12.352;2022-11-20T02:30:30;29.05;;;14.63;;
74674;SDS011;63200;48.810;12.352;2022-11-20T02:32:57;32.25;;;14.80;;
74674;SDS011;63200;48.810;12.352;2022-11-20T02:37:48;33.83;;;15.05;;
74674;SDS011;63200;48.810;12.352;2022-11-20T02:40:17;39.03;;;15.50;;
74674;SDS011;63200;48.810;12.352;2022-11-20T02:42:42;33.60;;;15.68;;
74674;SDS011;63200;48.810;12.352;2022-11-20T02:45:08;34.58;;;15.30;;
74674;SDS011;63200;48.810;12.352;2022-11-20T02:47:33;34.00;;;14.82;;
74674;SDS011;63200;48.810;12.352;2022-11-20T02:49:59;36.08;;;16.02;;
74674;SDS011;63200;48.810;12.352;2022-11-20T02:52:25;38.80;;;16.13;;
74674;SDS011;63200;48.810;12.352;2022-11-20T02:54:51;34.17;;;15.38;;
74674;SDS011;63200;48.810;12.352;2022-11-20T02:57:17;33.22;;;14.45;;
74674;SDS011;63200;48.810;12.352;2022-11-20T02:59:42;29.25;;;13.82;;
74674;SDS011;63200;48.810;12.352;2022-11-20T03:02:08;30.92;;;14.05;;
74674;SDS011;63200;48.810;12.352;2022-11-20T03:04:33;33.13;;;14.52;;
74674;SDS011;63200;48.810;12.352;2022-11-20T03:06:58;34.33;;;14.40;;
74674;SDS011;63200;48.810;12.352;2022-11-20T03:09:24;33.38;;;14.52;;
74674;SDS011;63200;48.810;12.352;2022-11-20T03:11:49;31.33;;;13.57;;
74674;SDS011;63200;48.810;12.352;2022-11-20T03:14:14;31.98;;;15.10;;
74674;SDS011;63200;48.810;12.352;2022-11-20T03:16:40;30.13;;;14.73;;
74674;SDS011;63200;48.810;12.352;2022-11-20T03:19:05;29.85;;;13.68;;
74674;SDS011;63200;48.810;12.352;2022-11-20T03:21:32;32.92;;;14.27;;
74674;SDS011;63200;48.810;12.352;2022-11-20T03:23:58;29.88;;;14.05;;
74674;SDS011;63200;48.810;12.352;2022-11-20T03:26:24;32.42;;;14.30;;
74674;SDS011;63200;48.810;12.352;2022-11-20T03:28:52;33.78;;;14.15;;
74674;SDS011;63200;48.810;12.352;2022-11-20T03:31:20;30.08;;;13.43;;
74674;SDS011;63200;48.810;12.352;2022-11-20T03:33:47;31.45;;;14.02;;
74674;SDS011;63200;48.810;12.352;2022-11-20T03:36:14;30.75;;;13.80;;
74674;SDS011;63200;48.810;12.352;2022-11-20T03:38:41;33.47;;;14.02;;
74674;SDS011;63200;48.810;12.352;2022-11-20T03:41:07;29.60;;;13.70;;
74674;SDS011;63200;48.810;12.352;2022-11-20T03:43:34;33.05;;;14.38;;
74674;SDS011;63200;48.810;12.352;2022-11-20T03:46:00;32.13;;;14.95;;
74674;SDS011;63200;48.810;12.352;2022-11-20T03:48:26;29.13;;;13.60;;
74674;SDS011;63200;48.810;12.352;2022-11-20T03:50:52;28.90;;;14.15;;
74674;SDS011;63200;48.810;12.352;2022-11-20T03:53:18;29.58;;;13.85;;
74674;SDS011;63200;48.810;12.352;2022-11-20T03:55:43;31.13;;;13.80;;
74674;SDS011;63200;48.810;12.352;2022-11-20T03:58:09;36.00;;;14.93;;
74674;SDS011;63200;48.810;12.352;2022-11-20T04:00:35;29.75;;;14.20;;
74674;SDS011;63200;48.810;12.352;2022-11-20T04:03:01;33.85;;;15.18;;
74674;SDS011;63200;48.810;12.352;2022-11-20T04:05:27;31.90;;;14.23;;
74674;SDS011;63200;48.810;12.352;2022-11-20T04:07:53;31.73;;;14.48;;
74674;SDS011;63200;48.810;12.352;2022-11-20T04:10:18;37.13;;;16.02;;
74674;SDS011;63200;48.810;12.352;2022-11-20T04:12:44;36.05;;;15.80;;
74674;SDS011;63200;48.810;12.352;2022-11-20T04:15:09;34.95;;;14.55;;
74674;SDS011;63200;48.810;12.352;2022-11-20T04:17:34;37.10;;;15.43;;
74674;SDS011;63200;48.810;12.352;2022-11-20T04:20:00;34.53;;;14.88;;
74674;SDS011;63200;48.810;12.352;2022-11-20T04:22:26;34.53;;;15.32;;
74674;SDS011;63200;48.810;12.352;2022-11-20T04:24:51;35.47;;;15.23;;
74674;SDS011;63200;48.810;12.352;2022-11-20T04:27:16;33.08;;;14.32;;
74674;SDS011;63200;48.810;12.352;2022-11-20T04:29:42;33.38;;;14.98;;
74674;SDS011;63200;48.810;12.352;2022-11-20T04:32:07;38.35;;;16.17;;
74674;SDS011;63200;48.810;12.352;2022-11-20T04:34:33;33.75;;;14.38;;
74674;SDS011;63200;48.810;12.352;2022-11-20T04:36:58;37.70;;;16.02;;
74674;SDS011;63200;48.810;12.352;2022-11-20T04:39:24;34.17;;;15.38;;
74674;SDS011;63200;48.810;12.352;2022-11-20T04:41:49;34.75;;;15.30;;
74674;SDS011;63200;48.810;12.352;2022-11-20T04:44:34;36.28;;;15.90;;
74674;SDS011;63200;48.810;12.352;2022-11-20T04:46:59;32.47;;;14.43;;
74674;SDS011;63200;48.810;12.352;2022-11-20T04:49:25;36.95;;;14.77;;
74674;SDS011;63200;48.810;12.352;2022-11-20T04:51:52;35.03;;;15.75;;
74674;SDS011;63200;48.810;12.352;2022-11-20T04:54:18;32.95;;;14.27;;
74674;SDS011;63200;48.810;12.352;2022-11-20T04:56:45;33.67;;;15.40;;
74674;SDS011;63200;48.810;12.352;2022-11-20T04:59:12;36.63;;;16.02;;
74674;SDS011;63200;48.810;12.352;2022-11-20T05:01:37;36.92;;;15.93;;
74674;SDS011;63200;48.810;12.352;2022-11-20T05:04:03;34.88;;;15.55;;
74674;SDS011;63200;48.810;12.352;2022-11-20T05:06:28;37.80;;;15.48;;
74674;SDS011;63200;48.810;12.352;2022-11-20T05:08:53;41.38;;;16.48;;
74674;SDS011;63200;48.810;12.352;2022-11-20T05:11:20;39.47;;;15.98;;
74674;SDS011;63200;48.810;12.352;2022-11-20T05:13:46;41.70;;;16.23;;
74674;SDS011;63200;48.810;12.352;2022-11-20T05:16:12;41.33;;;17.00;;
74674;SDS011;63200;48.810;12.352;2022-11-20T05:18:39;40.08;;;15.60;;
74674;SDS011;63200;48.810;12.352;2022-11-20T05:21:05;38.22;;;16.23;;
74674;SDS011;63200;48.810;12.352;2022-11-20T05:23:32;39.13;;;16.02;;
74674;SDS011;63200;48.810;12.352;2022-11-20T05:25:58;43.00;;;17.27;;
74674;SDS011;63200;48.810;12.352;2022-11-20T05:28:24;42.00;;;17.13;;
74674;SDS011;63200;48.810;12.352;2022-11-20T05:30:51;43.10;;;18.25;;
74674;SDS011;63200;48.810;12.352;2022-11-20T05:33:16;43.15;;;17.65;;
74674;SDS011;63200;48.810;12.352;2022-11-20T05:35:42;37.88;;;17.42;;
74674;SDS011;63200;48.810;12.352;2022-11-20T05:38:08;44.38;;;18.02;;
74674;SDS011;63200;48.810;12.352;2022-11-20T05:40:33;46.75;;;18.30;;
74674;SDS011;63200;48.810;12.352;2022-11-20T05:42:59;47.35;;;18.88;;
74674;SDS011;63200;48.810;12.352;2022-11-20T05:45:24;48.03;;;18.83;;
74674;SDS011;63200;48.810;12.352;2022-11-20T05:47:50;47.53;;;18.35;;
74674;SDS011;63200;48.810;12.352;2022-11-20T05:50:15;41.42;;;16.77;;
74674;SDS011;63200;48.810;12.352;2022-11-20T05:52:41;42.42;;;16.42;;
74674;SDS011;63200;48.810;12.352;2022-11-20T05:55:07;37.10;;;15.98;;
74674;SDS011;63200;48.810;12.352;2022-11-20T05:57:32;40.15;;;16.17;;
74674;SDS011;63200;48.810;12.352;2022-11-20T05:59:58;38.55;;;15.90;;
74674;SDS011;63200;48.810;12.352;2022-11-20T06:02:23;36.65;;;15.70;;
74674;SDS011;63200;48.810;12.352;2022-11-20T06:04:48;38.28;;;16.15;;
74674;SDS011;63200;48.810;12.352;2022-11-20T06:07:14;36.03;;;15.38;;
74674;SDS011;63200;48.810;12.352;2022-11-20T06:09:39;30.98;;;14.32;;
74674;SDS011;63200;48.810;12.352;2022-11-20T06:12:05;35.72;;;14.43;;
74674;SDS011;63200;48.810;12.352;2022-11-20T06:14:30;30.77;;;13.85;;
74674;SDS011;63200;48.810;12.352;2022-11-20T06:16:55;35.75;;;13.85;;
74674;SDS011;63200;48.810;12.352;2022-11-20T06:19:21;28.48;;;12.20;;
74674;SDS011;63200;48.810;12.352;2022-11-20T06:21:47;29.15;;;13.00;;
74674;SDS011;63200;48.810;12.352;2022-11-20T06:24:14;27.73;;;12.88;;
74674;SDS011;63200;48.810;12.352;2022-11-20T06:26:39;29.05;;;13.40;;
74674;SDS011;63200;48.810;12.352;2022-11-20T06:29:05;24.42;;;12.88;;
74674;SDS011;63200;48.810;12.352;2022-11-20T06:31:30;26.27;;;12.27;;
74674;SDS011;63200;48.810;12.352;2022-11-20T06:33:59;27.85;;;12.48;;
74674;SDS011;63200;48.810;12.352;2022-11-20T06:36:25;45.92;;;18.67;;
74674;SDS011;63200;48.810;12.352;2022-11-20T06:38:50;44.67;;;18.58;;
74674;SDS011;63200;48.810;12.352;2022-11-20T06:41:17;44.22;;;17.98;;
74674;SDS011;63200;48.810;12.352;2022-11-20T06:43:44;40.10;;;17.45;;
74674;SDS011;63200;48.810;12.352;2022-11-20T06:46:10;36.97;;;17.17;;
74674;SDS011;63200;48.810;12.352;2022-11-20T06:48:37;43.70;;;19.17;;
74674;SDS011;63200;48.810;12.352;2022-11-20T06:51:07;38.97;;;18.38;;
74674;SDS011;63200;48.810;12.352;2022-11-20T06:53:33;41.25;;;18.45;;
74674;SDS011;63200;48.810;12.352;2022-11-20T06:55:59;43.28;;;19.08;;
74674;SDS011;63200;48.810;12.352;2022-11-20T06:58:28;41.03;;;17.25;;
74674;SDS011;63200;48.810;12.352;2022-11-20T07:01:02;41.80;;;17.05;;
74674;SDS011;63200;48.810;12.352;2022-11-20T07:03:29;36.20;;;17.00;;
74674;SDS011;63200;48.810;12.352;2022-11-20T07:05:55;44.45;;;19.95;;
74674;SDS011;63200;48.810;12.352;2022-11-20T07:08:22;39.40;;;17.85;;
74674;SDS011;63200;48.810;12.352;2022-11-20T07:10:48;39.58;;;16.80;;
74674;SDS011;63200;48.810;12.352;2022-11-20T07:13:13;35.30;;;15.82;;
74674;SDS011;63200;48.810;12.352;2022-11-20T07:15:39;30.73;;;14.27;;
74674;SDS011;63200;48.810;12.352;2022-11-20T07:18:04;38.30;;;15.50;;
74674;SDS011;63200;48.810;12.352;2022-11-20T07:20:29;35.13;;;14.70;;
74674;SDS011;63200;48.810;12.352;2022-11-20T07:22:55;30.90;;;14.50;;
74674;SDS011;63200;48.810;12.352;2022-11-20T07:25:21;35.42;;;14.60;;
74674;SDS011;63200;48.810;12.352;2022-11-20T07:27:50;32.53;;;14.82;;
74674;SDS011;63200;48.810;12.352;2022-11-20T07:30:16;34.78;;;15.65;;
74674;SDS011;63200;48.810;12.352;2022-11-20T07:32:42;32.60;;;14.25;;
74674;SDS011;63200;48.810;12.352;2022-11-20T07:35:07;34.60;;;14.95;;
74674;SDS011;63200;48.810;12.352;2022-11-20T07:37:35;29.30;;;14.05;;
74674;SDS011;63200;48.810;12.352;2022-11-20T07:40:01;31.83;;;14.15;;
74674;SDS011;63200;48.810;12.352;2022-11-20T07:42:27;31.48;;;14.50;;
74674;SDS011;63200;48.810;12.352;2022-11-20T07:44:52;29.55;;;13.93;;
74674;SDS011;63200;48.810;12.352;2022-11-20T07:47:17;29.45;;;13.73;;
74674;SDS011;63200;48.810;12.352;2022-11-20T07:49:43;27.42;;;12.80;;
74674;SDS011;63200;48.810;12.352;2022-11-20T07:52:08;32.90;;;13.45;;
74674;SDS011;63200;48.810;12.352;2022-11-20T07:54:33;27.20;;;12.65;;
74674;SDS011;63200;48.810;12.352;2022-11-20T07:56:59;30.25;;;13.88;;
74674;SDS011;63200;48.810;12.352;2022-11-20T07:59:24;28.27;;;12.95;;
74674;SDS011;63200;48.810;12.352;2022-11-20T08:01:49;33.22;;;13.65;;
74674;SDS011;63200;48.810;12.352;2022-11-20T08:04:15;33.47;;;14.40;;
74674;SDS011;63200;48.810;12.352;2022-11-20T08:06:41;30.88;;;13.75;;
74674;SDS011;63200;48.810;12.352;2022-11-20T08:09:06;32.75;;;15.38;;
74674;SDS011;63200;48.810;12.352;2022-11-20T08:11:32;29.25;;;13.80;;
74674;SDS011;63200;48.810;12.352;2022-11-20T08:14:16;25.63;;;11.90;;
74674;SDS011;63200;48.810;12.352;2022-11-20T08:16:45;19.75;;;9.73;;
74674;SDS011;63200;48.810;12.352;2022-11-20T08:19:12;17.63;;;8.93;;
74674;SDS011;63200;48.810;12.352;2022-11-20T08:21:38;16.42;;;9.02;;
74674;SDS011;63200;48.810;12.352;2022-11-20T08:24:04;15.55;;;8.13;;
74674;SDS011;63200;48.810;12.352;2022-11-20T08:26:30;12.20;;;7.00;;
74674;SDS011;63200;48.810;12.352;2022-11-20T08:28:56;6.75;;;5.22;;
74674;SDS011;63200;48.810;12.352;2022-11-20T08:31:22;6.63;;;4.43;;
74674;SDS011;63200;48.810;12.352;2022-11-20T08:33:49;2.88;;;2.55;;
74674;SDS011;63200;48.810;12.352;2022-11-20T08:36:16;6.30;;;4.13;;
74674;SDS011;63200;48.810;12.352;2022-11-20T08:38:41;5.60;;;4.15;;
74674;SDS011;63200;48.810;12.352;2022-11-20T08:41:11;5.07;;;4.22;;
74674;SDS011;63200;48.810;12.352;2022-11-20T08:43:48;5.10;;;4.18;;
74674;SDS011;63200;48.810;12.352;2022-11-20T08:46:14;4.20;;;3.80;;
74674;SDS011;63200;48.810;12.352;2022-11-20T08:48:39;4.57;;;2.72;;
74674;SDS011;63200;48.810;12.352;2022-11-20T08:51:05;1.88;;;1.83;;
74674;SDS011;63200;48.810;12.352;2022-11-20T08:53:30;5.57;;;3.60;;
74674;SDS011;63200;48.810;12.352;2022-11-20T08:55:58;4.47;;;4.10;;
74674;SDS011;63200;48.810;12.352;2022-11-20T08:58:24;5.85;;;3.92;;
74674;SDS011;63200;48.810;12.352;2022-11-20T09:00:50;3.60;;;3.20;;
74674;SDS011;63200;48.810;12.352;2022-11-20T09:03:16;2.95;;;2.50;;
74674;SDS011;63200;48.810;12.352;2022-11-20T09:05:41;4.60;;;3.53;;
74674;SDS011;63200;48.810;12.352;2022-11-20T09:08:07;4.10;;;3.50;;
74674;SDS011;63200;48.810;12.352;2022-11-20T09:10:33;3.88;;;3.13;;
74674;SDS011;63200;48.810;12.352;2022-11-20T09:12:58;5.03;;;3.20;;
74674;SDS011;63200;48.810;12.352;2022-11-20T09:15:24;4.53;;;4.13;;
74674;SDS011;63200;48.810;12.352;2022-11-20T09:17:53;4.38;;;3.35;;
74674;SDS011;63200;48.810;12.352;2022-11-20T09:20:20;6.22;;;3.58;;
74674;SDS011;63200;48.810;12.352;2022-11-20T09:22:45;13.50;;;7.65;;
74674;SDS011;63200;48.810;12.352;2022-11-20T09:25:11;6.53;;;4.32;;
74674;SDS011;63200;48.810;12.352;2022-11-20T09:27:36;3.90;;;3.15;;
74674;SDS011;63200;48.810;12.352;2022-11-20T09:30:01;6.60;;;4.15;;
74674;SDS011;63200;48.810;12.352;2022-11-20T09:32:27;6.13;;;3.75;;
74674;SDS011;63200;48.810;12.352;2022-11-20T09:34:53;4.05;;;3.58;;
74674;SDS011;63200;48.810;12.352;2022-11-20T09:37:18;2.33;;;2.17;;
74674;SDS011;63200;48.810;12.352;2022-11-20T09:39:43;1.65;;;1.60;;
74674;SDS011;63200;48.810;12.352;2022-11-20T09:47:35;5.05;;;3.25;;
74674;SDS011;63200;48.810;12.352;2022-11-20T09:53:11;6.10;;;2.95;;
74674;SDS011;63200;48.810;12.352;2022-11-20T09:55:55;4.03;;;3.22;;
74674;SDS011;63200;48.810;12.352;2022-11-20T10:00:59;6.95;;;3.03;;
74674;SDS011;63200;48.810;12.352;2022-11-20T10:03:39;2.72;;;2.63;;
74674;SDS011;63200;48.810;12.352;2022-11-20T10:06:12;5.35;;;2.97;;
74674;SDS011;63200;48.810;12.352;2022-11-20T10:23:39;2.08;;;1.35;;
74674;SDS011;63200;48.810;12.352;2022-11-20T10:29:13;3.30;;;2.47;;
74674;SDS011;63200;48.810;12.352;2022-11-20T10:31:51;1.63;;;1.52;;
74674;SDS011;63200;48.810;12.352;2022-11-20T10:34:23;1.70;;;1.60;;
74674;SDS011;63200;48.810;12.352;2022-11-20T10:36:58;2.05;;;1.73;;
74674;SDS011;63200;48.810;12.352;2022-11-20T10:39:35;3.53;;;2.70;;
74674;SDS011;63200;48.810;12.352;2022-11-20T10:42:08;1.90;;;1.80;;
74674;SDS011;63200;48.810;12.352;2022-11-20T10:44:37;1.90;;;1.80;;
74674;SDS011;63200;48.810;12.352;2022-11-20T10:47:26;1.40;;;1.40;;
74674;SDS011;63200;48.810;12.352;2022-11-20T10:49:55;1.45;;;1.40;;
74674;SDS011;63200;48.810;12.352;2022-11-20T11:00:41;1.80;;;1.65;;
74674;SDS011;63200;48.810;12.352;2022-11-20T11:03:40;1.98;;;1.67;;
74674;SDS011;63200;48.810;12.352;2022-11-20T11:08:45;1.75;;;1.75;;
74674;SDS011;63200;48.810;12.352;2022-11-20T11:11:21;3.25;;;2.97;;
74674;SDS011;63200;48.810;12.352;2022-11-20T11:13:48;1.13;;;1.13;;
74674;SDS011;63200;48.810;12.352;2022-11-20T11:16:24;3.10;;;2.88;;
74674;SDS011;63200;48.810;12.352;2022-11-20T11:18:51;3.47;;;2.67;;
74674;SDS011;63200;48.810;12.352;2022-11-20T11:21:28;4.13;;;2.38;;
74674;SDS011;63200;48.810;12.352;2022-11-20T11:24:00;3.28;;;2.17;;
74674;SDS011;63200;48.810;12.352;2022-11-20T11:26:28;5.32;;;3.75;;
74674;SDS011;63200;48.810;12.352;2022-11-20T11:28:57;2.30;;;2.10;;
74674;SDS011;63200;48.810;12.352;2022-11-20T11:31:25;2.30;;;1.98;;
74674;SDS011;63200;48.810;12.352;2022-11-20T11:34:03;2.38;;;2.28;;
74674;SDS011;63200;48.810;12.352;2022-11-20T11:36:29;1.80;;;1.70;;
74674;SDS011;63200;48.810;12.352;2022-11-20T11:38:55;3.67;;;1.25;;
74674;SDS011;63200;48.810;12.352;2022-11-20T11:41:23;2.58;;;1.55;;
74674;SDS011;63200;48.810;12.352;2022-11-20T11:43:52;3.30;;;3.08;;
74674;SDS011;63200;48.810;12.352;2022-11-20T11:46:37;1.48;;;1.48;;
74674;SDS011;63200;48.810;12.352;2022-11-20T11:49:14;4.90;;;2.83;;
74674;SDS011;63200;48.810;12.352;2022-11-20T11:54:29;1.20;;;1.20;;
74674;SDS011;63200;48.810;12.352;2022-11-20T11:56:55;1.90;;;1.80;;
74674;SDS011;63200;48.810;12.352;2022-11-20T11:59:47;2.25;;;2.05;;
74674;SDS011;63200;48.810;12.352;2022-11-20T12:02:25;2.42;;;2.22;;
74674;SDS011;63200;48.810;12.352;2022-11-20T12:04:54;3.40;;;2.67;;
74674;SDS011;63200;48.810;12.352;2022-11-20T12:10:21;1.30;;;1.17;;
74674;SDS011;63200;48.810;12.352;2022-11-20T12:12:50;4.30;;;2.22;;
74674;SDS011;63200;48.810;12.352;2022-11-20T12:15:23;1.10;;;1.10;;
74674;SDS011;63200;48.810;12.352;2022-11-20T12:17:51;1.15;;;1.15;;
74674;SDS011;63200;48.810;12.352;2022-11-20T12:20:17;2.72;;;1.73;;
74674;SDS011;63200;48.810;12.352;2022-11-20T12:25:36;1.77;;;1.67;;
74674;SDS011;63200;48.810;12.352;2022-11-20T12:36:49;1.08;;;1.08;;
74674;SDS011;63200;48.810;12.352;2022-11-20T12:45:33;1.52;;;1.42;;
74674;SDS011;63200;48.810;12.352;2022-11-20T12:48:16;1.00;;;1.00;;
74674;SDS011;63200;48.810;12.352;2022-11-20T13:02:02;2.13;;;1.27;;
74674;SDS011;63200;48.810;12.352;2022-11-20T13:07:16;1.35;;;1.25;;
74674;SDS011;63200;48.810;12.352;2022-11-20T13:09:46;2.03;;;1.33;;
74674;SDS011;63200;48.810;12.352;2022-11-20T13:12:20;1.67;;;1.58;;
74674;SDS011;63200;48.810;12.352;2022-11-20T13:17:24;1.25;;;1.15;;
74674;SDS011;63200;48.810;12.352;2022-11-20T13:19:58;1.25;;;1.25;;
74674;SDS011;63200;48.810;12.352;2022-11-20T13:22:26;1.67;;;1.63;;
74674;SDS011;63200;48.810;12.352;2022-11-20T13:24:53;1.05;;;1.05;;
74674;SDS011;63200;48.810;12.352;2022-11-20T13:27:19;1.85;;;1.40;;
74674;SDS011;63200;48.810;12.352;2022-11-20T13:29:57;4.13;;;1.80;;
74674;SDS011;63200;48.810;12.352;2022-11-20T13:32:57;2.97;;;1.33;;
74674;SDS011;63200;48.810;12.352;2022-11-20T13:37:59;1.55;;;1.45;;
74674;SDS011;63200;48.810;12.352;2022-11-20T13:40:29;2.35;;;1.45;;
74674;SDS011;63200;48.810;12.352;2022-11-20T13:42:56;1.60;;;1.42;;
74674;SDS011;63200;48.810;12.352;2022-11-20T13:45:28;1.67;;;1.67;;
74674;SDS011;63200;48.810;12.352;2022-11-20T13:47:55;1.67;;;1.58;;
74674;SDS011;63200;48.810;12.352;2022-11-20T13:56:14;5.57;;;1.48;;
74674;SDS011;63200;48.810;12.352;2022-11-20T14:01:20;1.95;;;1.77;;
74674;SDS011;63200;48.810;12.352;2022-11-20T14:03:48;1.63;;;1.42;;
74674;SDS011;63200;48.810;12.352;2022-11-20T14:06:16;3.38;;;1.90;;
74674;SDS011;63200;48.810;12.352;2022-11-20T14:08:53;1.70;;;1.60;;
74674;SDS011;63200;48.810;12.352;2022-11-20T14:11:20;2.65;;;2.13;;
74674;SDS011;63200;48.810;12.352;2022-11-20T14:16:28;2.60;;;2.50;;
74674;SDS011;63200;48.810;12.352;2022-11-20T14:18:56;1.67;;;1.30;;
74674;SDS011;63200;48.810;12.352;2022-11-20T14:21:27;2.10;;;1.80;;
74674;SDS011;63200;48.810;12.352;2022-11-20T14:24:02;2.47;;;1.98;;
74674;SDS011;63200;48.810;12.352;2022-11-20T14:26:28;2.83;;;2.63;;
74674;SDS011;63200;48.810;12.352;2022-11-20T14:28:54;2.85;;;2.55;;
74674;SDS011;63200;48.810;12.352;2022-11-20T14:31:23;2.35;;;1.90;;
74674;SDS011;63200;48.810;12.352;2022-11-20T14:33:54;1.58;;;1.48;;
74674;SDS011;63200;48.810;12.352;2022-11-20T14:36:21;1.77;;;1.55;;
74674;SDS011;63200;48.810;12.352;2022-11-20T14:38:49;1.70;;;1.67;;
74674;SDS011;63200;48.810;12.352;2022-11-20T14:41:19;1.58;;;1.33;;
74674;SDS011;63200;48.810;12.352;2022-11-20T14:43:47;1.92;;;1.83;;
74674;SDS011;63200;48.810;12.352;2022-11-20T14:46:17;2.00;;;1.05;;
74674;SDS011;63200;48.810;12.352;2022-11-20T14:48:47;2.00;;;1.88;;
74674;SDS011;63200;48.810;12.352;2022-11-20T14:51:31;1.67;;;1.58;;
74674;SDS011;63200;48.810;12.352;2022-11-20T14:54:07;2.05;;;1.95;;
74674;SDS011;63200;48.810;12.352;2022-11-20T14:56:33;2.42;;;1.73;;
74674;SDS011;63200;48.810;12.352;2022-11-20T14:58:59;1.85;;;1.75;;
74674;SDS011;63200;48.810;12.352;2022-11-20T15:01:28;1.85;;;1.73;;
74674;SDS011;63200;48.810;12.352;2022-11-20T15:04:09;1.52;;;1.42;;
74674;SDS011;63200;48.810;12.352;2022-11-20T15:06:35;1.13;;;1.10;;
74674;SDS011;63200;48.810;12.352;2022-11-20T15:09:02;3.03;;;2.13;;
74674;SDS011;63200;48.810;12.352;2022-11-20T15:11:31;2.95;;;2.67;;
74674;SDS011;63200;48.810;12.352;2022-11-20T15:13:59;2.53;;;2.40;;
74674;SDS011;63200;48.810;12.352;2022-11-20T15:16:28;1.65;;;1.08;;
74674;SDS011;63200;48.810;12.352;2022-11-20T15:18:54;2.38;;;1.65;;
74674;SDS011;63200;48.810;12.352;2022-11-20T15:21:20;1.45;;;1.42;;
74674;SDS011;63200;48.810;12.352;2022-11-20T15:23:46;4.40;;;2.80;;
74674;SDS011;63200;48.810;12.352;2022-11-20T15:26:11;2.92;;;2.65;;
74674;SDS011;63200;48.810;12.352;2022-11-20T15:28:39;0.90;;;0.90;;
74674;SDS011;63200;48.810;12.352;2022-11-20T15:31:09;1.50;;;1.33;;
74674;SDS011;63200;48.810;12.352;2022-11-20T15:33:36;0.93;;;0.93;;
74674;SDS011;63200;48.810;12.352;2022-11-20T15:36:01;1.60;;;1.50;;
74674;SDS011;63200;48.810;12.352;2022-11-20T15:38:27;1.15;;;1.15;;
74674;SDS011;63200;48.810;12.352;2022-11-20T15:40:53;1.75;;;1.63;;
74674;SDS011;63200;48.810;12.352;2022-11-20T15:43:18;1.52;;;1.42;;
74674;SDS011;63200;48.810;12.352;2022-11-20T15:45:44;1.10;;;1.10;;
74674;SDS011;63200;48.810;12.352;2022-11-20T15:48:23;1.77;;;1.67;;
74674;SDS011;63200;48.810;12.352;2022-11-20T15:53:22;0.63;;;0.63;;
74674;SDS011;63200;48.810;12.352;2022-11-20T15:55:47;1.05;;;1.05;;
74674;SDS011;63200;48.810;12.352;2022-11-20T15:58:13;1.27;;;1.25;;
74674;SDS011;63200;48.810;12.352;2022-11-20T16:00:38;2.00;;;1.08;;
74674;SDS011;63200;48.810;12.352;2022-11-20T16:03:04;1.05;;;1.05;;
74674;SDS011;63200;48.810;12.352;2022-11-20T16:05:29;1.42;;;1.42;;